Wetterdaten: aktuell Sonntag, 16.05.2021 23:00
Datum Zeit Temp. Feuchte Luftdruck Nieders. Wind Richtung Richtung Sonnenschein Solar Taupunkt Windchill Windben
16.05.2021 23:00 9,8 C 94 % 1002,1 hPa 0,0 l/m 0,0 km/h (0 Bft) SO 129 0 min 0 W/m 8,9 C 9,8 C 0,0 km/h (0 Bft)
16.05.2021 22:55 9,8 C 94 % 1002,1 hPa 0,0 l/m 0,0 km/h (0 Bft) SO 129 0 min 0 W/m 8,9 C 9,8 C 0,0 km/h (0 Bft)
16.05.2021 22:50 9,8 C 94 % 1002,1 hPa 0,0 l/m 0,0 km/h (0 Bft) SO 129 0 min 0 W/m 8,9 C 9,8 C 0,0 km/h (0 Bft)
16.05.2021 22:45 9,7 C 94 % 1002,0 hPa 0,0 l/m 0,0 km/h (0 Bft) SO 129 0 min 0 W/m 8,8 C 9,7 C 0,0 km/h (0 Bft)
16.05.2021 22:40 9,7 C 94 % 1002,0 hPa 0,0 l/m 0,8 km/h (0 Bft) SO 128 0 min 0 W/m 8,8 C 9,7 C 4,8 km/h (1 Bft)
16.05.2021 22:35 9,7 C 94 % 1001,9 hPa 0,0 l/m 0,0 km/h (0 Bft) SO 127 0 min 0 W/m 8,8 C 9,7 C 0,0 km/h (0 Bft)
16.05.2021 22:30 9,7 C 94 % 1001,7 hPa 0,0 l/m 1,0 km/h (0 Bft) SO 127 0 min 0 W/m 8,8 C 9,7 C 6,4 km/h (2 Bft)
16.05.2021 22:25 9,7 C 94 % 1001,7 hPa 0,0 l/m 5,3 km/h (1 Bft) SO 126 0 min 0 W/m 8,8 C 9,7 C 8,0 km/h (2 Bft)
16.05.2021 22:20 9,7 C 94 % 1001,6 hPa 0,0 l/m 5,4 km/h (2 Bft) SO 126 0 min 0 W/m 8,8 C 9,7 C 11,3 km/h (2 Bft)
16.05.2021 22:15 9,8 C 94 % 1001,7 hPa 0,0 l/m 5,5 km/h (2 Bft) SO 126 0 min 0 W/m 8,9 C 9,8 C 11,3 km/h (2 Bft)
16.05.2021 22:10 9,9 C 94 % 1001,6 hPa 0,0 l/m 6,9 km/h (2 Bft) O-SO 121 0 min 0 W/m 9,0 C 9,5 C 12,9 km/h (3 Bft)
16.05.2021 22:05 9,9 C 94 % 1001,5 hPa 0,0 l/m 4,5 km/h (1 Bft) O-SO 106 0 min 0 W/m 9,0 C 9,9 C 12,9 km/h (3 Bft)
16.05.2021 22:00 10,0 C 94 % 1001,5 hPa 0,0 l/m 6,3 km/h (2 Bft) O-SO 108 0 min 0 W/m 9,1 C 10,0 C 11,3 km/h (2 Bft)
16.05.2021 21:55 10,0 C 94 % 1001,5 hPa 0,0 l/m 8,0 km/h (2 Bft) O-SO 106 0 min 0 W/m 9,1 C 8,9 C 12,9 km/h (3 Bft)
16.05.2021 21:50 10,1 C 94 % 1001,5 hPa 0,0 l/m 5,5 km/h (2 Bft) O-SO 113 0 min 0 W/m 9,2 C 10,1 C 11,3 km/h (2 Bft)
16.05.2021 21:45 10,1 C 94 % 1001,6 hPa 0,0 l/m 2,0 km/h (1 Bft) O-SO 113 0 min 0 W/m 9,2 C 10,1 C 9,7 km/h (2 Bft)
16.05.2021 21:40 10,1 C 94 % 1001,7 hPa 0,0 l/m 0,0 km/h (0 Bft) O-SO 113 0 min 0 W/m 9,2 C 10,1 C 0,0 km/h (0 Bft)
16.05.2021 21:35 10,1 C 94 % 1001,8 hPa 0,2 l/m 1,3 km/h (1 Bft) O-SO 113 0 min 0 W/m 9,2 C 10,1 C 8,0 km/h (2 Bft)
16.05.2021 21:30 10,1 C 94 % 1001,9 hPa 0,2 l/m 6,4 km/h (2 Bft) S 171 0 min 0 W/m 9,2 C 10,1 C 9,7 km/h (2 Bft)
16.05.2021 21:25 10,1 C 93 % 1001,8 hPa 0,0 l/m 6,2 km/h (2 Bft) S 171 0 min 0 W/m 9,0 C 10,1 C 9,7 km/h (2 Bft)
16.05.2021 21:20 10,1 C 93 % 1001,9 hPa 0,0 l/m 4,3 km/h (1 Bft) S-SW 198 0 min 0 W/m 9,0 C 10,1 C 8,0 km/h (2 Bft)
16.05.2021 21:15 10,2 C 93 % 1002,0 hPa 0,0 l/m 0,8 km/h (0 Bft) S-SW 205 0 min 0 W/m 9,1 C 10,2 C 6,4 km/h (2 Bft)
16.05.2021 21:10 10,3 C 93 % 1001,9 hPa 0,0 l/m 0,0 km/h (0 Bft) S-SW 205 0 min 0 W/m 9,2 C 10,3 C 0,0 km/h (0 Bft)
16.05.2021 21:05 10,3 C 93 % 1001,8 hPa 0,0 l/m 0,0 km/h (0 Bft) S-SW 205 0 min 0 W/m 9,2 C 10,3 C 0,0 km/h (0 Bft)
16.05.2021 21:00 10,3 C 92 % 1001,6 hPa 0,2 l/m 0,0 km/h (0 Bft) S-SW 205 0 min 0 W/m 9,1 C 10,3 C 0,0 km/h (0 Bft)
16.05.2021 20:55 10,3 C 92 % 1001,6 hPa 0,4 l/m 0,0 km/h (0 Bft) S-SW 205 0 min 0 W/m 9,1 C 10,3 C 0,0 km/h (0 Bft)
16.05.2021 20:50 10,3 C 92 % 1001,8 hPa 0,2 l/m 0,0 km/h (0 Bft) S-SW 205 0 min 0 W/m 9,1 C 10,3 C 0,0 km/h (0 Bft)
16.05.2021 20:45 10,3 C 92 % 1001,8 hPa 0,2 l/m 0,0 km/h (0 Bft) S-SW 205 0 min 0 W/m 9,1 C 10,3 C 0,0 km/h (0 Bft)
16.05.2021 20:40 10,3 C 92 % 1001,9 hPa 0,6 l/m 0,0 km/h (0 Bft) S-SW 205 0 min 0 W/m 9,1 C 10,3 C 0,0 km/h (0 Bft)
16.05.2021 20:35 10,4 C 92 % 1001,9 hPa 0,4 l/m 0,0 km/h (0 Bft) S-SW 205 0 min 0 W/m 9,2 C 10,4 C 0,0 km/h (0 Bft)
16.05.2021 20:30 10,4 C 92 % 1002,0 hPa 0,2 l/m 0,7 km/h (0 Bft) S-SW 205 0 min 0 W/m 9,2 C 10,4 C 4,8 km/h (1 Bft)
16.05.2021 20:25 10,5 C 91 % 1001,9 hPa 0,6 l/m 0,7 km/h (0 Bft) S-SW 205 0 min 0 W/m 9,1 C 10,5 C 4,8 km/h (1 Bft)
16.05.2021 20:20 10,6 C 91 % 1002,1 hPa 0,0 l/m 1,4 km/h (1 Bft) W-SW 256 0 min 0 W/m 9,2 C 10,6 C 4,8 km/h (1 Bft)
16.05.2021 20:15 10,8 C 92 % 1002,0 hPa 0,4 l/m 0,0 km/h (0 Bft) N-NW 338 0 min 0 W/m 9,6 C 10,8 C 0,0 km/h (0 Bft)
16.05.2021 20:10 10,8 C 92 % 1001,8 hPa 0,2 l/m 0,0 km/h (0 Bft) N-NW 337 0 min 0 W/m 9,6 C 10,8 C 0,0 km/h (0 Bft)
16.05.2021 20:05 10,8 C 92 % 1001,9 hPa 0,0 l/m 0,0 km/h (0 Bft) N-NW 337 0 min 0 W/m 9,6 C 10,8 C 0,0 km/h (0 Bft)
16.05.2021 20:00 10,9 C 92 % 1001,9 hPa 0,0 l/m 0,0 km/h (0 Bft) N-NW 338 0 min 5 W/m 9,7 C 10,9 C 0,0 km/h (0 Bft)
16.05.2021 19:55 10,9 C 92 % 1001,9 hPa 0,2 l/m 0,0 km/h (0 Bft) N-NW 338 0 min 5 W/m 9,7 C 10,9 C 0,0 km/h (0 Bft)
16.05.2021 19:50 10,9 C 91 % 1001,7 hPa 0,0 l/m 0,0 km/h (0 Bft) N-NW 337 0 min 12 W/m 9,5 C 10,9 C 0,0 km/h (0 Bft)
16.05.2021 19:45 10,9 C 91 % 1001,7 hPa 0,0 l/m 0,0 km/h (0 Bft) N-NW 338 0 min 18 W/m 9,5 C 10,9 C 0,0 km/h (0 Bft)
16.05.2021 19:40 11,0 C 91 % 1001,7 hPa 0,0 l/m 0,0 km/h (0 Bft) N-NW 338 0 min 11 W/m 9,6 C 11,0 C 0,0 km/h (0 Bft)
16.05.2021 19:35 11,1 C 91 % 1001,6 hPa 0,0 l/m 0,0 km/h (0 Bft) N-NW 337 0 min 14 W/m 9,7 C 11,1 C 0,0 km/h (0 Bft)
16.05.2021 19:30 11,1 C 91 % 1001,6 hPa 0,0 l/m 0,0 km/h (0 Bft) N-NW 337 0 min 25 W/m 9,7 C 11,1 C 0,0 km/h (0 Bft)
16.05.2021 19:25 11,1 C 91 % 1001,5 hPa 0,0 l/m 0,0 km/h (0 Bft) N-NW 338 0 min 46 W/m 9,7 C 11,1 C 0,0 km/h (0 Bft)
16.05.2021 19:20 11,1 C 90 % 1001,6 hPa 0,0 l/m 0,3 km/h (0 Bft) N-NW 338 0 min 46 W/m 9,5 C 11,1 C 6,4 km/h (2 Bft)
16.05.2021 19:15 11,2 C 90 % 1001,6 hPa 0,0 l/m 0,3 km/h (0 Bft) N-NW 338 0 min 32 W/m 9,6 C 11,2 C 4,8 km/h (1 Bft)
16.05.2021 19:10 11,2 C 89 % 1001,5 hPa 0,0 l/m 3,0 km/h (1 Bft) N-NW 338 0 min 44 W/m 9,5 C 11,2 C 9,7 km/h (2 Bft)
16.05.2021 19:05 11,4 C 88 % 1001,4 hPa 0,2 l/m 4,6 km/h (1 Bft) N-NW 328 0 min 51 W/m 9,5 C 11,4 C 12,9 km/h (3 Bft)
16.05.2021 19:00 11,9 C 86 % 1001,4 hPa 1,4 l/m 7,5 km/h (2 Bft) N-NW 336 0 min 70 W/m 9,6 C 11,2 C 19,3 km/h (3 Bft)
16.05.2021 18:55 12,7 C 85 % 1001,6 hPa 2,0 l/m 9,2 km/h (2 Bft) NW 306 0 min 28 W/m 10,2 C 11,0 C 25,7 km/h (4 Bft)
16.05.2021 18:50 13,3 C 86 % 1001,7 hPa 1,4 l/m 4,9 km/h (1 Bft) W-NW 294 0 min 11 W/m 11,0 C 13,3 C 14,5 km/h (3 Bft)
16.05.2021 18:45 13,3 C 85 % 1000,9 hPa 0,0 l/m 0,0 km/h (0 Bft) O-SO 111 0 min 9 W/m 10,8 C 13,3 C 0,0 km/h (0 Bft)
16.05.2021 18:40 13,3 C 84 % 1000,6 hPa 0,0 l/m 0,0 km/h (0 Bft) O-SO 111 0 min 23 W/m 10,7 C 13,3 C 0,0 km/h (0 Bft)
16.05.2021 18:35 13,4 C 83 % 1000,5 hPa 0,0 l/m 0,0 km/h (0 Bft) O-SO 111 0 min 28 W/m 10,6 C 13,4 C 0,0 km/h (0 Bft)
16.05.2021 18:30 13,7 C 85 % 1000,5 hPa 0,0 l/m 0,0 km/h (0 Bft) O-SO 111 0 min 30 W/m 11,2 C 13,7 C 0,0 km/h (0 Bft)
16.05.2021 18:25 13,8 C 84 % 1000,5 hPa 0,0 l/m 0,0 km/h (0 Bft) O-SO 111 0 min 33 W/m 11,1 C 13,8 C 0,0 km/h (0 Bft)
16.05.2021 18:20 13,9 C 80 % 1000,6 hPa 0,0 l/m 0,0 km/h (0 Bft) O-SO 111 0 min 58 W/m 10,5 C 13,9 C 0,0 km/h (0 Bft)
16.05.2021 18:15 14,0 C 81 % 1000,6 hPa 0,0 l/m 0,0 km/h (0 Bft) O-SO 111 0 min 84 W/m 10,8 C 14,0 C 0,0 km/h (0 Bft)
16.05.2021 18:10 14,0 C 81 % 1000,6 hPa 0,0 l/m 0,8 km/h (0 Bft) O-SO 111 0 min 142 W/m 10,8 C 14,0 C 9,7 km/h (2 Bft)
16.05.2021 18:05 14,1 C 84 % 1000,5 hPa 0,2 l/m 4,0 km/h (1 Bft) O-SO 109 5 min 490 W/m 11,4 C 14,1 C 14,5 km/h (3 Bft)
16.05.2021 18:00 13,9 C 82 % 1000,5 hPa 0,4 l/m 5,8 km/h (2 Bft) O 95 5 min 538 W/m 10,9 C 13,9 C 14,5 km/h (3 Bft)
16.05.2021 17:55 13,8 C 79 % 1000,9 hPa 0,0 l/m 0,2 km/h (0 Bft) O-SO 110 5 min 186 W/m 10,2 C 13,8 C 3,2 km/h (1 Bft)
16.05.2021 17:50 13,7 C 80 % 1000,8 hPa 0,0 l/m 1,2 km/h (1 Bft) O-SO 110 5 min 322 W/m 10,3 C 13,7 C 6,4 km/h (2 Bft)
16.05.2021 17:45 13,8 C 79 % 1000,8 hPa 0,0 l/m 4,5 km/h (1 Bft) O-SO 111 0 min 127 W/m 10,2 C 13,8 C 11,3 km/h (2 Bft)
16.05.2021 17:40 13,8 C 78 % 1000,7 hPa 0,0 l/m 6,0 km/h (2 Bft) O-SO 109 5 min 199 W/m 10,0 C 13,8 C 12,9 km/h (3 Bft)
16.05.2021 17:35 14,0 C 78 % 1000,8 hPa 0,0 l/m 4,4 km/h (1 Bft) O-SO 119 5 min 214 W/m 10,2 C 14,0 C 14,5 km/h (3 Bft)
16.05.2021 17:30 14,2 C 76 % 1001,0 hPa 0,0 l/m 3,5 km/h (1 Bft) SO 134 0 min 134 W/m 10,0 C 14,2 C 14,5 km/h (3 Bft)
16.05.2021 17:25 14,4 C 76 % 1001,2 hPa 0,0 l/m 0,7 km/h (0 Bft) SO 125 0 min 125 W/m 10,2 C 14,4 C 6,4 km/h (2 Bft)
16.05.2021 17:20 14,6 C 74 % 1001,3 hPa 0,0 l/m 2,0 km/h (1 Bft) SO 125 0 min 91 W/m 10,0 C 14,6 C 8,0 km/h (2 Bft)
16.05.2021 17:15 14,7 C 74 % 1001,3 hPa 0,0 l/m 0,7 km/h (0 Bft) O-SO 123 0 min 63 W/m 10,1 C 14,7 C 8,0 km/h (2 Bft)
16.05.2021 17:10 14,7 C 72 % 1001,3 hPa 0,0 l/m 0,0 km/h (0 Bft) O-SO 111 0 min 49 W/m 9,7 C 14,7 C 0,0 km/h (0 Bft)
16.05.2021 17:05 14,8 C 73 % 1001,2 hPa 0,0 l/m 3,2 km/h (1 Bft) O-SO 111 0 min 54 W/m 10,0 C 14,8 C 11,3 km/h (2 Bft)
16.05.2021 17:00 15,1 C 72 % 1001,1 hPa 0,0 l/m 5,6 km/h (2 Bft) O-SO 111 0 min 127 W/m 10,1 C 15,1 C 9,7 km/h (2 Bft)
16.05.2021 16:55 15,2 C 74 % 1001,2 hPa 0,0 l/m 5,5 km/h (2 Bft) S-SO 165 0 min 132 W/m 10,6 C 15,2 C 16,1 km/h (3 Bft)
16.05.2021 16:50 15,1 C 74 % 1001,1 hPa 0,0 l/m 6,4 km/h (2 Bft) S-SO 152 5 min 250 W/m 10,5 C 15,1 C 11,3 km/h (2 Bft)
16.05.2021 16:45 15,0 C 73 % 1001,1 hPa 0,0 l/m 6,6 km/h (2 Bft) S-SO 157 5 min 246 W/m 10,2 C 14,9 C 12,9 km/h (3 Bft)
16.05.2021 16:40 15,1 C 74 % 1001,2 hPa 0,0 l/m 2,7 km/h (1 Bft) SO 142 5 min 197 W/m 10,5 C 15,1 C 14,5 km/h (3 Bft)
16.05.2021 16:35 14,9 C 76 % 1001,3 hPa 0,0 l/m 0,0 km/h (0 Bft) SO 142 5 min 229 W/m 10,7 C 14,9 C 0,0 km/h (0 Bft)
16.05.2021 16:30 14,8 C 75 % 1001,3 hPa 0,0 l/m 0,0 km/h (0 Bft) SO 142 5 min 255 W/m 10,4 C 14,8 C 0,0 km/h (0 Bft)
16.05.2021 16:25 14,8 C 75 % 1001,4 hPa 0,0 l/m 0,0 km/h (0 Bft) SO 142 5 min 234 W/m 10,4 C 14,8 C 0,0 km/h (0 Bft)
16.05.2021 16:20 14,9 C 74 % 1001,5 hPa 0,0 l/m 0,0 km/h (0 Bft) SO 142 5 min 179 W/m 10,3 C 14,9 C 0,0 km/h (0 Bft)
16.05.2021 16:15 15,1 C 71 % 1001,5 hPa 0,0 l/m 1,6 km/h (1 Bft) SO 142 0 min 111 W/m 9,9 C 15,1 C 6,4 km/h (2 Bft)
16.05.2021 16:10 15,4 C 69 % 1001,5 hPa 0,0 l/m 6,8 km/h (2 Bft) SO 141 0 min 111 W/m 9,7 C 15,2 C 12,9 km/h (3 Bft)
16.05.2021 16:05 15,9 C 68 % 1001,4 hPa 0,0 l/m 5,7 km/h (2 Bft) SO 138 0 min 144 W/m 10,0 C 15,9 C 12,9 km/h (3 Bft)
16.05.2021 16:00 16,2 C 65 % 1001,3 hPa 0,0 l/m 5,1 km/h (1 Bft) SO 143 5 min 230 W/m 9,6 C 16,2 C 12,9 km/h (3 Bft)
16.05.2021 15:55 16,1 C 67 % 1001,5 hPa 0,0 l/m 5,3 km/h (1 Bft) S-SW 207 5 min 761 W/m 10,0 C 16,1 C 12,9 km/h (3 Bft)
16.05.2021 15:50 15,8 C 67 % 1001,5 hPa 0,0 l/m 3,0 km/h (1 Bft) S-SO 157 5 min 200 W/m 9,7 C 15,8 C 14,5 km/h (3 Bft)
16.05.2021 15:45 15,8 C 70 % 1001,5 hPa 0,0 l/m 4,8 km/h (1 Bft) SO 129 5 min 603 W/m 10,3 C 15,8 C 12,9 km/h (3 Bft)
16.05.2021 15:40 15,8 C 70 % 1001,5 hPa 0,0 l/m 1,3 km/h (1 Bft) O-SO 115 5 min 724 W/m 10,3 C 15,8 C 9,7 km/h (2 Bft)
16.05.2021 15:35 15,7 C 75 % 1001,6 hPa 0,0 l/m 2,8 km/h (1 Bft) S-SO 155 5 min 726 W/m 11,3 C 15,7 C 11,3 km/h (2 Bft)
16.05.2021 15:30 15,8 C 75 % 1001,8 hPa 0,0 l/m 5,8 km/h (2 Bft) S-SO 155 5 min 216 W/m 11,4 C 15,8 C 14,5 km/h (3 Bft)
16.05.2021 15:25 16,2 C 73 % 1001,9 hPa 0,0 l/m 5,1 km/h (1 Bft) S-SO 164 5 min 956 W/m 11,4 C 16,2 C 9,7 km/h (2 Bft)
16.05.2021 15:20 16,3 C 74 % 1001,9 hPa 0,0 l/m 6,9 km/h (2 Bft) S-SO 167 5 min 926 W/m 11,7 C 16,0 C 14,5 km/h (3 Bft)
16.05.2021 15:15 16,3 C 70 % 1002,0 hPa 0,0 l/m 0,4 km/h (0 Bft) S-SW 205 5 min 842 W/m 10,8 C 16,3 C 8,0 km/h (2 Bft)
16.05.2021 15:10 16,1 C 69 % 1002,0 hPa 0,0 l/m 1,4 km/h (1 Bft) W-SW 244 5 min 230 W/m 10,4 C 16,1 C 8,0 km/h (2 Bft)
16.05.2021 15:05 15,8 C 72 % 1002,1 hPa 0,0 l/m 3,7 km/h (1 Bft) W-NW 293 5 min 893 W/m 10,8 C 15,8 C 11,3 km/h (2 Bft)
16.05.2021 15:00 15,5 C 71 % 1002,1 hPa 0,0 l/m 2,2 km/h (1 Bft) W-NW 298 5 min 886 W/m 10,3 C 15,5 C 12,9 km/h (3 Bft)
16.05.2021 14:55 15,1 C 73 % 1002,2 hPa 0,0 l/m 0,1 km/h (0 Bft) SW 229 5 min 874 W/m 10,3 C 15,1 C 3,2 km/h (1 Bft)
16.05.2021 14:50 14,7 C 79 % 1002,3 hPa 0,0 l/m 0,0 km/h (0 Bft) SW 229 5 min 865 W/m 11,1 C 14,7 C 0,0 km/h (0 Bft)
16.05.2021 14:45 14,2 C 79 % 1002,3 hPa 0,0 l/m 0,0 km/h (0 Bft) SW 229 5 min 837 W/m 10,6 C 14,2 C 0,0 km/h (0 Bft)
16.05.2021 14:40 13,6 C 80 % 1002,3 hPa 0,0 l/m 1,0 km/h (0 Bft) SW 229 5 min 819 W/m 10,2 C 13,6 C 6,4 km/h (2 Bft)
16.05.2021 14:35 13,2 C 83 % 1002,4 hPa 0,0 l/m 0,0 km/h (0 Bft) SW 221 5 min 795 W/m 10,4 C 13,2 C 0,0 km/h (0 Bft)
16.05.2021 14:30 12,6 C 84 % 1002,5 hPa 0,0 l/m 0,0 km/h (0 Bft) SW 221 5 min 724 W/m 10,0 C 12,6 C 0,0 km/h (0 Bft)
16.05.2021 14:25 12,2 C 82 % 1002,5 hPa 0,0 l/m 1,3 km/h (1 Bft) SW 221 5 min 385 W/m 9,2 C 12,2 C 6,4 km/h (2 Bft)
16.05.2021 14:20 12,1 C 86 % 1002,5 hPa 0,0 l/m 2,5 km/h (1 Bft) SW 221 5 min 960 W/m 9,8 C 12,1 C 6,4 km/h (2 Bft)
16.05.2021 14:15 12,2 C 80 % 1002,5 hPa 0,0 l/m 0,1 km/h (0 Bft) W-NW 289 5 min 183 W/m 8,9 C 12,2 C 3,2 km/h (1 Bft)
16.05.2021 14:10 12,6 C 79 % 1002,7 hPa 0,0 l/m 2,8 km/h (1 Bft) W-NW 288 0 min 102 W/m 9,1 C 12,6 C 12,9 km/h (3 Bft)
16.05.2021 14:05 13,3 C 76 % 1003,0 hPa 0,2 l/m 5,1 km/h (1 Bft) W-NW 291 0 min 93 W/m 9,2 C 13,3 C 16,1 km/h (3 Bft)
16.05.2021 14:00 13,9 C 78 % 1003,0 hPa 0,2 l/m 5,0 km/h (1 Bft) S-SW 198 0 min 33 W/m 10,1 C 13,9 C 20,9 km/h (4 Bft)
16.05.2021 13:55 14,2 C 77 % 1002,6 hPa 0,0 l/m 4,2 km/h (1 Bft) S-SW 202 0 min 46 W/m 10,2 C 14,2 C 8,0 km/h (2 Bft)
16.05.2021 13:50 14,4 C 76 % 1002,6 hPa 0,0 l/m 2,0 km/h (1 Bft) S-SW 207 0 min 84 W/m 10,2 C 14,4 C 9,7 km/h (2 Bft)
16.05.2021 13:45 14,3 C 78 % 1002,7 hPa 0,0 l/m 0,3 km/h (0 Bft) SW 225 5 min 216 W/m 10,5 C 14,3 C 6,4 km/h (2 Bft)
16.05.2021 13:40 14,1 C 79 % 1002,7 hPa 0,0 l/m 0,3 km/h (0 Bft) SW 225 5 min 283 W/m 10,5 C 14,1 C 4,8 km/h (1 Bft)
16.05.2021 13:35 13,6 C 80 % 1002,8 hPa 0,0 l/m 0,9 km/h (0 Bft) SW 225 5 min 918 W/m 10,2 C 13,6 C 6,4 km/h (2 Bft)
16.05.2021 13:30 13,1 C 83 % 1002,8 hPa 0,0 l/m 2,8 km/h (1 Bft) SW 221 5 min 868 W/m 10,3 C 13,1 C 9,7 km/h (2 Bft)
16.05.2021 13:25 12,6 C 86 % 1002,9 hPa 0,0 l/m 2,3 km/h (1 Bft) SW 230 5 min 851 W/m 10,3 C 12,6 C 11,3 km/h (2 Bft)
16.05.2021 13:20 11,9 C 88 % 1002,9 hPa 0,0 l/m 0,1 km/h (0 Bft) W 280 5 min 851 W/m 10,0 C 11,9 C 3,2 km/h (1 Bft)
16.05.2021 13:15 11,2 C 91 % 1002,9 hPa 0,0 l/m 0,3 km/h (0 Bft) W 280 5 min 847 W/m 9,8 C 11,2 C 4,8 km/h (1 Bft)
16.05.2021 13:10 10,6 C 85 % 1002,9 hPa 0,0 l/m 0,0 km/h (0 Bft) W-NW 282 5 min 882 W/m 8,2 C 10,6 C 0,0 km/h (0 Bft)
16.05.2021 13:05 10,8 C 83 % 1002,9 hPa 0,0 l/m 0,0 km/h (0 Bft) W-NW 282 0 min 107 W/m 8,0 C 10,8 C 0,0 km/h (0 Bft)
16.05.2021 13:00 11,3 C 78 % 1003,0 hPa 1,2 l/m 3,3 km/h (1 Bft) W 281 0 min 83 W/m 7,6 C 11,3 C 11,3 km/h (2 Bft)
16.05.2021 12:55 12,8 C 74 % 1003,3 hPa 1,8 l/m 11,0 km/h (2 Bft) W 271 0 min 53 W/m 8,3 C 10,2 C 20,9 km/h (4 Bft)
16.05.2021 12:50 13,8 C 79 % 1003,5 hPa 0,0 l/m 4,5 km/h (1 Bft) W-NW 283 0 min 53 W/m 10,2 C 13,8 C 14,5 km/h (3 Bft)
16.05.2021 12:45 14,0 C 78 % 1003,1 hPa 0,0 l/m 3,0 km/h (1 Bft) S-SW 209 0 min 107 W/m 10,2 C 14,0 C 11,3 km/h (2 Bft)
16.05.2021 12:40 14,2 C 78 % 1003,3 hPa 0,0 l/m 6,3 km/h (2 Bft) W-SW 240 5 min 232 W/m 10,4 C 14,2 C 14,5 km/h (3 Bft)
16.05.2021 12:35 14,0 C 80 % 1003,3 hPa 0,0 l/m 5,4 km/h (2 Bft) SW 224 5 min 1000 W/m 10,6 C 14,0 C 12,9 km/h (3 Bft)
16.05.2021 12:30 13,6 C 84 % 1003,3 hPa 0,0 l/m 5,8 km/h (2 Bft) S-SW 207 5 min 911 W/m 10,9 C 13,6 C 16,1 km/h (3 Bft)
16.05.2021 12:25 12,9 C 84 % 1003,5 hPa 0,0 l/m 5,7 km/h (2 Bft) S-SW 207 5 min 853 W/m 10,3 C 12,9 C 12,9 km/h (3 Bft)
16.05.2021 12:20 12,6 C 84 % 1003,5 hPa 0,0 l/m 5,6 km/h (2 Bft) S-SW 192 5 min 311 W/m 10,0 C 12,6 C 16,1 km/h (3 Bft)
16.05.2021 12:15 12,3 C 86 % 1003,5 hPa 0,0 l/m 7,4 km/h (2 Bft) S-SO 163 5 min 432 W/m 10,0 C 11,6 C 19,3 km/h (3 Bft)
16.05.2021 12:10 12,2 C 86 % 1003,5 hPa 0,0 l/m 9,0 km/h (2 Bft) S-SO 160 5 min 223 W/m 9,9 C 10,6 C 19,3 km/h (3 Bft)
16.05.2021 12:05 12,3 C 87 % 1003,5 hPa 0,2 l/m 4,4 km/h (1 Bft) S-SW 192 5 min 167 W/m 10,2 C 12,3 C 17,7 km/h (3 Bft)
16.05.2021 12:00 12,4 C 85 % 1003,4 hPa 0,0 l/m 8,7 km/h (2 Bft) S 189 0 min 144 W/m 9,9 C 11,0 C 19,3 km/h (3 Bft)
16.05.2021 11:55 12,7 C 85 % 1003,4 hPa 0,0 l/m 10,0 km/h (2 Bft) S-SO 151 0 min 142 W/m 10,2 C 10,6 C 25,7 km/h (4 Bft)
16.05.2021 11:50 12,9 C 84 % 1003,3 hPa 0,0 l/m 7,2 km/h (2 Bft) S-SW 203 5 min 190 W/m 10,3 C 12,4 C 14,5 km/h (3 Bft)
16.05.2021 11:45 13,1 C 84 % 1003,4 hPa 0,0 l/m 8,1 km/h (2 Bft) S-SW 194 5 min 257 W/m 10,5 C 12,0 C 20,9 km/h (4 Bft)
16.05.2021 11:40 13,4 C 83 % 1003,6 hPa 0,0 l/m 7,2 km/h (2 Bft) S 169 5 min 229 W/m 10,6 C 12,9 C 16,1 km/h (3 Bft)
16.05.2021 11:35 13,7 C 82 % 1003,4 hPa 0,0 l/m 9,4 km/h (2 Bft) S-SO 161 5 min 232 W/m 10,7 C 12,0 C 17,7 km/h (3 Bft)
16.05.2021 11:30 13,9 C 82 % 1003,4 hPa 0,0 l/m 7,7 km/h (2 Bft) S-SW 194 5 min 366 W/m 10,9 C 13,1 C 19,3 km/h (3 Bft)
16.05.2021 11:25 13,8 C 82 % 1003,4 hPa 0,0 l/m 11,7 km/h (2 Bft) S 175 5 min 877 W/m 10,8 C 11,0 C 27,4 km/h (5 Bft)
16.05.2021 11:20 13,6 C 85 % 1003,4 hPa 0,0 l/m 8,0 km/h (2 Bft) S 188 5 min 508 W/m 11,1 C 12,6 C 17,7 km/h (3 Bft)
16.05.2021 11:15 13,2 C 86 % 1003,4 hPa 0,0 l/m 10,4 km/h (2 Bft) S 175 5 min 508 W/m 10,9 C 10,9 C 19,3 km/h (3 Bft)
16.05.2021 11:10 12,9 C 88 % 1003,4 hPa 0,0 l/m 6,3 km/h (2 Bft) SW 221 5 min 545 W/m 11,0 C 12,9 C 14,5 km/h (3 Bft)
16.05.2021 11:05 12,7 C 89 % 1003,5 hPa 0,0 l/m 6,0 km/h (2 Bft) SW 234 5 min 345 W/m 10,9 C 12,7 C 16,1 km/h (3 Bft)
16.05.2021 11:00 12,2 C 90 % 1003,5 hPa 0,0 l/m 7,6 km/h (2 Bft) SO 143 5 min 371 W/m 10,6 C 11,4 C 19,3 km/h (3 Bft)
16.05.2021 10:55 11,8 C 90 % 1003,5 hPa 0,0 l/m 4,3 km/h (1 Bft) S 188 5 min 315 W/m 10,2 C 11,8 C 11,3 km/h (2 Bft)
16.05.2021 10:50 11,7 C 89 % 1003,6 hPa 0,0 l/m 7,2 km/h (2 Bft) SO 128 5 min 237 W/m 9,9 C 11,2 C 12,9 km/h (3 Bft)
16.05.2021 10:45 11,8 C 88 % 1003,6 hPa 0,0 l/m 5,7 km/h (2 Bft) SW 214 0 min 137 W/m 9,9 C 11,8 C 11,3 km/h (2 Bft)
16.05.2021 10:40 11,9 C 88 % 1003,7 hPa 0,0 l/m 4,6 km/h (1 Bft) SW 223 0 min 139 W/m 10,0 C 11,9 C 14,5 km/h (3 Bft)
16.05.2021 10:35 11,9 C 88 % 1003,6 hPa 0,0 l/m 3,0 km/h (1 Bft) S-SW 192 0 min 132 W/m 10,0 C 11,9 C 11,3 km/h (2 Bft)
16.05.2021 10:30 11,8 C 88 % 1003,7 hPa 0,0 l/m 5,4 km/h (2 Bft) S 183 5 min 213 W/m 9,9 C 11,8 C 14,5 km/h (3 Bft)
16.05.2021 10:25 11,8 C 86 % 1003,7 hPa 0,0 l/m 8,3 km/h (2 Bft) S 180 5 min 186 W/m 9,5 C 10,6 C 19,3 km/h (3 Bft)
16.05.2021 10:20 12,0 C 86 % 1003,7 hPa 0,0 l/m 3,1 km/h (1 Bft) S-SW 208 0 min 95 W/m 9,7 C 12,0 C 9,7 km/h (2 Bft)
16.05.2021 10:15 11,9 C 86 % 1003,6 hPa 0,0 l/m 4,4 km/h (1 Bft) SW 227 0 min 128 W/m 9,6 C 11,9 C 12,9 km/h (3 Bft)
16.05.2021 10:10 12,0 C 85 % 1003,6 hPa 0,0 l/m 5,3 km/h (1 Bft) SW 222 5 min 165 W/m 9,6 C 12,0 C 16,1 km/h (3 Bft)
16.05.2021 10:05 11,9 C 86 % 1003,7 hPa 0,0 l/m 4,5 km/h (1 Bft) S 181 5 min 178 W/m 9,6 C 11,9 C 14,5 km/h (3 Bft)
16.05.2021 10:00 11,8 C 86 % 1003,7 hPa 0,0 l/m 5,8 km/h (2 Bft) SW 227 5 min 207 W/m 9,5 C 11,8 C 14,5 km/h (3 Bft)
16.05.2021 09:55 11,8 C 86 % 1003,7 hPa 0,0 l/m 6,6 km/h (2 Bft) S 190 5 min 294 W/m 9,5 C 11,7 C 12,9 km/h (3 Bft)
16.05.2021 09:50 11,7 C 87 % 1003,8 hPa 0,0 l/m 6,0 km/h (2 Bft) S-SO 153 0 min 144 W/m 9,6 C 11,7 C 16,1 km/h (3 Bft)
16.05.2021 09:45 11,8 C 87 % 1003,8 hPa 0,0 l/m 7,5 km/h (2 Bft) S-SW 205 5 min 192 W/m 9,7 C 11,1 C 19,3 km/h (3 Bft)
16.05.2021 09:40 11,7 C 88 % 1003,7 hPa 0,0 l/m 7,6 km/h (2 Bft) S-SO 152 5 min 246 W/m 9,8 C 10,9 C 16,1 km/h (3 Bft)
16.05.2021 09:35 11,4 C 88 % 1003,7 hPa 0,0 l/m 7,4 km/h (2 Bft) SO 145 5 min 323 W/m 9,5 C 10,7 C 17,7 km/h (3 Bft)
16.05.2021 09:30 11,3 C 89 % 1003,8 hPa 0,0 l/m 3,1 km/h (1 Bft) S 188 5 min 267 W/m 9,6 C 11,3 C 14,5 km/h (3 Bft)
16.05.2021 09:25 11,1 C 89 % 1003,9 hPa 0,0 l/m 6,7 km/h (2 Bft) S-SW 196 5 min 153 W/m 9,4 C 10,9 C 16,1 km/h (3 Bft)
16.05.2021 09:20 11,1 C 90 % 1003,9 hPa 0,0 l/m 2,3 km/h (1 Bft) S 173 5 min 216 W/m 9,5 C 11,1 C 11,3 km/h (2 Bft)
16.05.2021 09:15 10,9 C 89 % 1004,0 hPa 0,0 l/m 5,3 km/h (1 Bft) S 172 0 min 104 W/m 9,2 C 10,9 C 11,3 km/h (2 Bft)
16.05.2021 09:10 10,9 C 89 % 1004,0 hPa 0,0 l/m 4,2 km/h (1 Bft) S-SW 193 0 min 86 W/m 9,2 C 10,9 C 9,7 km/h (2 Bft)
16.05.2021 09:05 10,9 C 89 % 1004,0 hPa 0,0 l/m 6,4 km/h (2 Bft) SW 216 0 min 69 W/m 9,2 C 10,9 C 17,7 km/h (3 Bft)
16.05.2021 09:00 10,9 C 90 % 1004,0 hPa 0,0 l/m 5,4 km/h (2 Bft) S-SW 213 0 min 84 W/m 9,3 C 10,9 C 12,9 km/h (3 Bft)
16.05.2021 08:55 10,9 C 90 % 1004,0 hPa 0,0 l/m 4,5 km/h (1 Bft) SO 141 0 min 63 W/m 9,3 C 10,9 C 11,3 km/h (2 Bft)
16.05.2021 08:50 10,9 C 90 % 1004,0 hPa 0,0 l/m 3,8 km/h (1 Bft) S-SW 208 0 min 114 W/m 9,3 C 10,9 C 11,3 km/h (2 Bft)
16.05.2021 08:45 10,9 C 90 % 1004,0 hPa 0,0 l/m 3,5 km/h (1 Bft) S 169 0 min 98 W/m 9,3 C 10,9 C 9,7 km/h (2 Bft)
16.05.2021 08:40 10,9 C 90 % 1003,9 hPa 0,0 l/m 3,2 km/h (1 Bft) S-SO 168 0 min 95 W/m 9,3 C 10,9 C 14,5 km/h (3 Bft)
16.05.2021 08:35 10,8 C 91 % 1003,9 hPa 0,0 l/m 3,3 km/h (1 Bft) SO 128 0 min 97 W/m 9,4 C 10,8 C 12,9 km/h (3 Bft)
16.05.2021 08:30 10,8 C 91 % 1004,0 hPa 0,0 l/m 1,7 km/h (1 Bft) S 180 0 min 123 W/m 9,4 C 10,8 C 4,8 km/h (1 Bft)
16.05.2021 08:25 10,7 C 91 % 1004,0 hPa 0,0 l/m 2,2 km/h (1 Bft) S 180 5 min 156 W/m 9,3 C 10,7 C 9,7 km/h (2 Bft)
16.05.2021 08:20 10,6 C 91 % 1004,0 hPa 0,0 l/m 3,9 km/h (1 Bft) S 173 0 min 123 W/m 9,2 C 10,6 C 9,7 km/h (2 Bft)
16.05.2021 08:15 10,5 C 91 % 1003,9 hPa 0,0 l/m 6,5 km/h (2 Bft) S 173 0 min 107 W/m 9,1 C 10,5 C 12,9 km/h (3 Bft)
16.05.2021 08:10 10,5 C 92 % 1004,0 hPa 0,0 l/m 2,8 km/h (1 Bft) S-SO 163 0 min 123 W/m 9,3 C 10,5 C 11,3 km/h (2 Bft)
16.05.2021 08:05 10,3 C 92 % 1004,0 hPa 0,0 l/m 1,4 km/h (1 Bft) S-SO 168 5 min 239 W/m 9,1 C 10,3 C 8,0 km/h (2 Bft)
16.05.2021 08:00 10,3 C 92 % 1004,0 hPa 0,0 l/m 2,8 km/h (1 Bft) S-SW 202 0 min 132 W/m 9,1 C 10,3 C 9,7 km/h (2 Bft)
16.05.2021 07:55 10,2 C 92 % 1004,1 hPa 0,0 l/m 2,5 km/h (1 Bft) S-SO 168 0 min 105 W/m 9,0 C 10,2 C 12,9 km/h (3 Bft)
16.05.2021 07:50 10,1 C 93 % 1004,1 hPa 0,0 l/m 2,0 km/h (1 Bft) S-SW 195 0 min 137 W/m 9,0 C 10,1 C 9,7 km/h (2 Bft)
16.05.2021 07:45 9,9 C 93 % 1004,1 hPa 0,0 l/m 7,1 km/h (2 Bft) S-SW 192 5 min 172 W/m 8,8 C 9,4 C 12,9 km/h (3 Bft)
16.05.2021 07:40 9,8 C 94 % 1004,1 hPa 0,0 l/m 4,4 km/h (1 Bft) S-SO 165 0 min 125 W/m 8,9 C 9,8 C 11,3 km/h (2 Bft)
16.05.2021 07:35 9,6 C 93 % 1004,0 hPa 0,0 l/m 3,0 km/h (1 Bft) S-SO 157 0 min 139 W/m 8,5 C 9,6 C 9,7 km/h (2 Bft)
16.05.2021 07:30 9,4 C 93 % 1004,0 hPa 0,0 l/m 5,2 km/h (1 Bft) S-SO 160 0 min 47 W/m 8,3 C 9,4 C 9,7 km/h (2 Bft)
16.05.2021 07:25 9,4 C 93 % 1004,0 hPa 0,0 l/m 5,7 km/h (2 Bft) S-SO 153 0 min 49 W/m 8,3 C 9,4 C 12,9 km/h (3 Bft)
16.05.2021 07:20 9,3 C 93 % 1004,1 hPa 0,0 l/m 6,7 km/h (2 Bft) S-SO 153 0 min 58 W/m 8,2 C 9,1 C 14,5 km/h (3 Bft)
16.05.2021 07:15 9,3 C 93 % 1004,1 hPa 0,0 l/m 7,3 km/h (2 Bft) S 169 0 min 51 W/m 8,2 C 8,6 C 16,1 km/h (3 Bft)
16.05.2021 07:10 9,3 C 93 % 1004,1 hPa 0,0 l/m 4,7 km/h (1 Bft) S 175 0 min 33 W/m 8,2 C 9,3 C 14,5 km/h (3 Bft)
16.05.2021 07:05 9,2 C 94 % 1004,1 hPa 0,0 l/m 4,9 km/h (1 Bft) S-SW 195 0 min 60 W/m 8,3 C 9,2 C 11,3 km/h (2 Bft)
16.05.2021 07:00 9,2 C 94 % 1004,0 hPa 0,0 l/m 4,9 km/h (1 Bft) SO 136 0 min 60 W/m 8,3 C 9,2 C 11,3 km/h (2 Bft)
16.05.2021 06:55 9,1 C 93 % 1004,0 hPa 0,0 l/m 5,8 km/h (2 Bft) SO 132 0 min 67 W/m 8,0 C 9,1 C 11,3 km/h (2 Bft)
16.05.2021 06:50 9,2 C 93 % 1003,9 hPa 0,0 l/m 7,0 km/h (2 Bft) SO 128 0 min 33 W/m 8,1 C 8,8 C 12,9 km/h (3 Bft)
16.05.2021 06:45 9,2 C 93 % 1003,9 hPa 0,0 l/m 7,0 km/h (2 Bft) O-SO 118 0 min 28 W/m 8,1 C 8,8 C 12,9 km/h (3 Bft)
16.05.2021 06:40 9,2 C 93 % 1004,0 hPa 0,0 l/m 2,1 km/h (1 Bft) O-SO 123 0 min 25 W/m 8,1 C 9,2 C 8,0 km/h (2 Bft)
16.05.2021 06:35 9,1 C 93 % 1004,1 hPa 0,0 l/m 0,5 km/h (0 Bft) SO 142 0 min 23 W/m 8,0 C 9,1 C 4,8 km/h (1 Bft)
16.05.2021 06:30 9,1 C 93 % 1004,0 hPa 0,0 l/m 4,1 km/h (1 Bft) SO 141 0 min 14 W/m 8,0 C 9,1 C 12,9 km/h (3 Bft)
16.05.2021 06:25 9,1 C 93 % 1004,0 hPa 0,0 l/m 2,5 km/h (1 Bft) SO 142 0 min 16 W/m 8,0 C 9,1 C 9,7 km/h (2 Bft)
16.05.2021 06:20 9,1 C 93 % 1004,0 hPa 0,0 l/m 4,4 km/h (1 Bft) SO 144 0 min 11 W/m 8,0 C 9,1 C 9,7 km/h (2 Bft)
16.05.2021 06:15 9,1 C 93 % 1003,8 hPa 0,0 l/m 3,5 km/h (1 Bft) SO 142 0 min 9 W/m 8,0 C 9,1 C 12,9 km/h (3 Bft)
16.05.2021 06:10 9,2 C 93 % 1003,8 hPa 0,0 l/m 2,7 km/h (1 Bft) S-SO 155 0 min 7 W/m 8,1 C 9,2 C 11,3 km/h (2 Bft)
16.05.2021 06:05 9,2 C 93 % 1003,9 hPa 0,0 l/m 5,6 km/h (2 Bft) SW 227 0 min 5 W/m 8,1 C 9,2 C 11,3 km/h (2 Bft)
16.05.2021 05:55 9,2 C 93 % 1003,9 hPa 0,0 l/m 4,8 km/h (1 Bft) S 180 0 min 0 W/m 8,1 C 9,2 C 14,5 km/h (3 Bft)
16.05.2021 05:50 9,2 C 93 % 1003,9 hPa 0,0 l/m 3,2 km/h (1 Bft) S 180 0 min 0 W/m 8,1 C 9,2 C 8,0 km/h (2 Bft)
16.05.2021 05:45 9,2 C 93 % 1003,9 hPa 0,0 l/m 4,8 km/h (1 Bft) S-SO 157 0 min 0 W/m 8,1 C 9,2 C 11,3 km/h (2 Bft)
16.05.2021 05:40 9,2 C 93 % 1003,9 hPa 0,0 l/m 4,8 km/h (1 Bft) S-SO 157 0 min 0 W/m 8,1 C 9,2 C 11,3 km/h (2 Bft)
16.05.2021 05:35 9,2 C 93 % 1004,0 hPa 0,0 l/m 8,0 km/h (2 Bft) S-SO 157 0 min 0 W/m 8,1 C 8,0 C 14,5 km/h (3 Bft)
16.05.2021 05:30 9,2 C 93 % 1003,9 hPa 0,0 l/m 3,2 km/h (1 Bft) S-SO 157 0 min 0 W/m 8,1 C 9,2 C 12,9 km/h (3 Bft)
16.05.2021 05:25 9,1 C 93 % 1003,9 hPa 0,0 l/m 4,8 km/h (1 Bft) S-SO 157 0 min 0 W/m 8,0 C 9,1 C 9,7 km/h (2 Bft)
16.05.2021 05:20 9,1 C 94 % 1004,0 hPa 0,0 l/m 3,2 km/h (1 Bft) S-SO 157 0 min 0 W/m 8,2 C 9,1 C 8,0 km/h (2 Bft)
16.05.2021 05:15 9,1 C 94 % 1004,0 hPa 0,0 l/m 4,8 km/h (1 Bft) S 180 0 min 0 W/m 8,2 C 9,1 C 9,7 km/h (2 Bft)
16.05.2021 05:10 9,1 C 94 % 1003,9 hPa 0,0 l/m 4,8 km/h (1 Bft) S 180 0 min 0 W/m 8,2 C 9,1 C 8,0 km/h (2 Bft)
16.05.2021 05:05 9,0 C 98 % 1003,9 hPa 0,0 l/m 4,8 km/h (1 Bft) SO 135 0 min 0 W/m 8,7 C 9,0 C 11,3 km/h (2 Bft)
16.05.2021 05:00 9,0 C 98 % 1003,9 hPa 0,0 l/m 3,2 km/h (1 Bft) SO 135 0 min 0 W/m 8,7 C 9,0 C 8,0 km/h (2 Bft)
16.05.2021 04:55 9,0 C 93 % 1004,0 hPa 0,0 l/m 3,2 km/h (1 Bft) SO 135 0 min 0 W/m 7,9 C 9,0 C 11,3 km/h (2 Bft)
16.05.2021 04:50 8,9 C 93 % 1004,0 hPa 0,0 l/m 1,6 km/h (1 Bft) S 180 0 min 0 W/m 7,8 C 8,9 C 8,0 km/h (2 Bft)
16.05.2021 04:45 8,9 C 93 % 1004,0 hPa 0,0 l/m 1,6 km/h (1 Bft) S 180 0 min 0 W/m 7,8 C 8,9 C 8,0 km/h (2 Bft)
16.05.2021 04:40 8,9 C 93 % 1004,0 hPa 0,0 l/m 4,8 km/h (1 Bft) S 180 0 min 0 W/m 7,8 C 8,9 C 11,3 km/h (2 Bft)
16.05.2021 04:35 8,9 C 93 % 1004,0 hPa 0,0 l/m 8,0 km/h (2 Bft) S 180 0 min 0 W/m 7,8 C 7,7 C 17,7 km/h (3 Bft)
16.05.2021 04:30 8,8 C 93 % 1004,1 hPa 0,0 l/m 4,8 km/h (1 Bft) S 180 0 min 0 W/m 7,7 C 8,8 C 12,9 km/h (3 Bft)
16.05.2021 04:25 8,8 C 93 % 1004,1 hPa 0,0 l/m 6,4 km/h (2 Bft) SO 135 0 min 0 W/m 7,7 C 8,8 C 14,5 km/h (3 Bft)
16.05.2021 04:20 8,8 C 93 % 1004,1 hPa 0,0 l/m 4,8 km/h (1 Bft) S-SO 157 0 min 0 W/m 7,7 C 8,8 C 14,5 km/h (3 Bft)
16.05.2021 04:15 8,8 C 93 % 1004,1 hPa 0,0 l/m 6,4 km/h (2 Bft) S-SO 157 0 min 0 W/m 7,7 C 8,8 C 11,3 km/h (2 Bft)
16.05.2021 04:10 8,8 C 93 % 1004,1 hPa 0,0 l/m 6,4 km/h (2 Bft) S-SO 157 0 min 0 W/m 7,7 C 8,8 C 16,1 km/h (3 Bft)
16.05.2021 04:05 8,7 C 93 % 1004,1 hPa 0,0 l/m 3,2 km/h (1 Bft) S-SO 157 0 min 0 W/m 7,6 C 8,7 C 9,7 km/h (2 Bft)
16.05.2021 04:00 8,8 C 93 % 1004,0 hPa 0,0 l/m 3,2 km/h (1 Bft) S-SO 157 0 min 0 W/m 7,7 C 8,8 C 12,9 km/h (3 Bft)
16.05.2021 03:55 8,8 C 93 % 1003,9 hPa 0,0 l/m 6,4 km/h (2 Bft) S-SO 157 0 min 0 W/m 7,7 C 8,8 C 16,1 km/h (3 Bft)
16.05.2021 03:50 8,8 C 93 % 1003,8 hPa 0,0 l/m 4,8 km/h (1 Bft) S-SW 202 0 min 0 W/m 7,7 C 8,8 C 11,3 km/h (2 Bft)
16.05.2021 03:45 8,8 C 93 % 1003,8 hPa 0,0 l/m 4,8 km/h (1 Bft) S-SW 202 0 min 0 W/m 7,7 C 8,8 C 14,5 km/h (3 Bft)
16.05.2021 03:40 8,8 C 93 % 1003,8 hPa 0,0 l/m 6,4 km/h (2 Bft) S-SO 157 0 min 0 W/m 7,7 C 8,8 C 12,9 km/h (3 Bft)
16.05.2021 03:35 8,8 C 93 % 1003,7 hPa 0,0 l/m 6,4 km/h (2 Bft) S-SO 157 0 min 0 W/m 7,7 C 8,8 C 16,1 km/h (3 Bft)
16.05.2021 03:30 8,8 C 93 % 1003,8 hPa 0,0 l/m 4,8 km/h (1 Bft) SO 135 0 min 0 W/m 7,7 C 8,8 C 12,9 km/h (3 Bft)
16.05.2021 03:25 8,9 C 93 % 1003,7 hPa 0,0 l/m 3,2 km/h (1 Bft) S-SO 157 0 min 0 W/m 7,8 C 8,9 C 12,9 km/h (3 Bft)
16.05.2021 03:20 8,9 C 93 % 1003,7 hPa 0,0 l/m 6,4 km/h (2 Bft) S-SO 157 0 min 0 W/m 7,8 C 8,9 C 11,3 km/h (2 Bft)
16.05.2021 03:15 8,9 C 93 % 1003,8 hPa 0,0 l/m 4,8 km/h (1 Bft) S-SO 157 0 min 0 W/m 7,8 C 8,9 C 16,1 km/h (3 Bft)
16.05.2021 03:10 8,9 C 93 % 1003,8 hPa 0,0 l/m 3,2 km/h (1 Bft) S-SO 157 0 min 0 W/m 7,8 C 8,9 C 9,7 km/h (2 Bft)
16.05.2021 03:05 8,9 C 93 % 1003,8 hPa 0,0 l/m 4,8 km/h (1 Bft) S-SO 157 0 min 0 W/m 7,8 C 8,9 C 11,3 km/h (2 Bft)
16.05.2021 03:00 9,0 C 93 % 1003,8 hPa 0,0 l/m 6,4 km/h (2 Bft) S-SO 157 0 min 0 W/m 7,9 C 9,0 C 14,5 km/h (3 Bft)
16.05.2021 02:55 9,1 C 93 % 1003,8 hPa 0,0 l/m 4,8 km/h (1 Bft) S-SO 157 0 min 0 W/m 8,0 C 9,1 C 14,5 km/h (3 Bft)
16.05.2021 02:50 9,1 C 93 % 1003,8 hPa 0,0 l/m 6,4 km/h (2 Bft) S-SO 157 0 min 0 W/m 8,0 C 9,1 C 12,9 km/h (3 Bft)
16.05.2021 02:45 9,2 C 93 % 1003,8 hPa 0,0 l/m 6,4 km/h (2 Bft) S 180 0 min 0 W/m 8,1 C 9,2 C 11,3 km/h (2 Bft)
16.05.2021 02:40 9,2 C 93 % 1003,8 hPa 0,0 l/m 6,4 km/h (2 Bft) S-SO 157 0 min 0 W/m 8,1 C 9,2 C 11,3 km/h (2 Bft)
16.05.2021 02:35 9,2 C 93 % 1003,8 hPa 0,0 l/m 6,4 km/h (2 Bft) S 180 0 min 0 W/m 8,1 C 9,2 C 16,1 km/h (3 Bft)
16.05.2021 02:30 9,3 C 93 % 1003,8 hPa 0,0 l/m 4,8 km/h (1 Bft) S 180 0 min 0 W/m 8,2 C 9,3 C 14,5 km/h (3 Bft)
16.05.2021 02:25 9,3 C 93 % 1003,8 hPa 0,0 l/m 6,4 km/h (2 Bft) S-SO 157 0 min 0 W/m 8,2 C 9,3 C 12,9 km/h (3 Bft)
16.05.2021 02:20 9,3 C 93 % 1003,9 hPa 0,0 l/m 4,8 km/h (1 Bft) S 180 0 min 0 W/m 8,2 C 9,3 C 14,5 km/h (3 Bft)
16.05.2021 02:15 9,3 C 93 % 1003,8 hPa 0,0 l/m 4,8 km/h (1 Bft) S 180 0 min 0 W/m 8,2 C 9,3 C 12,9 km/h (3 Bft)
16.05.2021 02:10 9,3 C 93 % 1003,7 hPa 0,0 l/m 8,0 km/h (2 Bft) S-SO 157 0 min 0 W/m 8,2 C 8,1 C 16,1 km/h (3 Bft)
16.05.2021 02:05 9,3 C 93 % 1003,7 hPa 0,0 l/m 8,0 km/h (2 Bft) S-SO 157 0 min 0 W/m 8,2 C 8,1 C 19,3 km/h (3 Bft)
16.05.2021 02:00 9,3 C 93 % 1003,8 hPa 0,0 l/m 8,0 km/h (2 Bft) S 180 0 min 0 W/m 8,2 C 8,1 C 12,9 km/h (3 Bft)
16.05.2021 01:55 9,3 C 93 % 1003,6 hPa 0,0 l/m 9,7 km/h (2 Bft) S-SO 157 0 min 0 W/m 8,2 C 7,0 C 17,7 km/h (3 Bft)
16.05.2021 01:50 9,4 C 93 % 1003,6 hPa 0,0 l/m 4,8 km/h (1 Bft) SO 135 0 min 0 W/m 8,3 C 9,4 C 14,5 km/h (3 Bft)
16.05.2021 01:45 9,4 C 93 % 1003,5 hPa 0,0 l/m 4,8 km/h (1 Bft) S-SO 157 0 min 0 W/m 8,3 C 9,4 C 14,5 km/h (3 Bft)
16.05.2021 01:40 9,4 C 93 % 1003,5 hPa 0,0 l/m 4,8 km/h (1 Bft) S-SO 157 0 min 0 W/m 8,3 C 9,4 C 16,1 km/h (3 Bft)
16.05.2021 01:35 9,4 C 93 % 1003,5 hPa 0,0 l/m 6,4 km/h (2 Bft) S-SO 157 0 min 0 W/m 8,3 C 9,4 C 14,5 km/h (3 Bft)
16.05.2021 01:30 9,4 C 93 % 1003,4 hPa 0,0 l/m 4,8 km/h (1 Bft) S 180 0 min 0 W/m 8,3 C 9,4 C 11,3 km/h (2 Bft)
16.05.2021 01:25 9,4 C 93 % 1003,5 hPa 0,0 l/m 6,4 km/h (2 Bft) S 180 0 min 0 W/m 8,3 C 9,4 C 17,7 km/h (3 Bft)
16.05.2021 01:20 9,4 C 93 % 1003,4 hPa 0,0 l/m 4,8 km/h (1 Bft) S 180 0 min 0 W/m 8,3 C 9,4 C 12,9 km/h (3 Bft)
16.05.2021 01:15 9,4 C 92 % 1003,4 hPa 0,0 l/m 4,8 km/h (1 Bft) S 180 0 min 0 W/m 8,2 C 9,4 C 12,9 km/h (3 Bft)
16.05.2021 01:10 9,6 C 92 % 1003,4 hPa 0,0 l/m 4,8 km/h (1 Bft) SO 135 0 min 0 W/m 8,4 C 9,6 C 14,5 km/h (3 Bft)
16.05.2021 01:05 9,6 C 93 % 1003,4 hPa 0,0 l/m 6,4 km/h (2 Bft) S 180 0 min 0 W/m 8,5 C 9,6 C 12,9 km/h (3 Bft)
16.05.2021 01:00 9,6 C 92 % 1003,4 hPa 0,0 l/m 3,2 km/h (1 Bft) S-SW 202 0 min 0 W/m 8,4 C 9,6 C 9,7 km/h (2 Bft)
16.05.2021 00:55 9,7 C 93 % 1003,3 hPa 0,0 l/m 4,8 km/h (1 Bft) SO 135 0 min 0 W/m 8,6 C 9,7 C 19,3 km/h (3 Bft)
16.05.2021 00:50 9,7 C 92 % 1003,3 hPa 0,0 l/m 3,2 km/h (1 Bft) S 180 0 min 0 W/m 8,5 C 9,7 C 11,3 km/h (2 Bft)
16.05.2021 00:45 9,8 C 92 % 1003,3 hPa 0,0 l/m 1,6 km/h (1 Bft) S 180 0 min 0 W/m 8,6 C 9,8 C 8,0 km/h (2 Bft)
16.05.2021 00:40 9,9 C 92 % 1003,3 hPa 0,0 l/m 3,2 km/h (1 Bft) SW 225 0 min 0 W/m 8,7 C 9,9 C 14,5 km/h (3 Bft)
16.05.2021 00:35 9,9 C 92 % 1003,3 hPa 0,0 l/m 8,0 km/h (2 Bft) S 180 0 min 0 W/m 8,7 C 8,7 C 19,3 km/h (3 Bft)
16.05.2021 00:30 10,1 C 92 % 1003,3 hPa 0,0 l/m 6,4 km/h (2 Bft) S 180 0 min 0 W/m 8,9 C 10,1 C 14,5 km/h (3 Bft)
16.05.2021 00:25 10,1 C 92 % 1003,2 hPa 0,0 l/m 8,0 km/h (2 Bft) S-SO 157 0 min 0 W/m 8,9 C 9,0 C 20,9 km/h (4 Bft)
16.05.2021 00:20 10,2 C 92 % 1003,2 hPa 0,0 l/m 1,6 km/h (1 Bft) S 180 0 min 0 W/m 9,0 C 10,2 C 8,0 km/h (2 Bft)
16.05.2021 00:15 10,2 C 92 % 1003,2 hPa 0,0 l/m 4,8 km/h (1 Bft) S 180 0 min 0 W/m 9,0 C 10,2 C 12,9 km/h (3 Bft)
16.05.2021 00:10 10,3 C 92 % 1003,2 hPa 0,0 l/m 4,8 km/h (1 Bft) S-SO 157 0 min 0 W/m 9,1 C 10,3 C 20,9 km/h (4 Bft)
16.05.2021 00:05 10,3 C 92 % 1003,2 hPa 0,0 l/m 8,0 km/h (2 Bft) S-SO 157 0 min 0 W/m 9,1 C 9,2 C 17,7 km/h (3 Bft)
16.05.2021 00:00 10,4 C 92 % 1003,2 hPa 0,0 l/m 3,2 km/h (1 Bft) S 180 0 min 0 W/m 9,2 C 10,4 C 11,3 km/h (2 Bft)
_ Min-Zeit 04:05 16:00 18:00 - 13:05 - - - - 13:00 01:55 13:05
Minimum _ 8,7 C 65 % 1000,5 hPa - 0,0 km/h (0 Bft) - - - - 7,6 C 7,0 C 0,0 km/h (0 Bft)
_ Max-Zeit 15:20 05:00 04:05 18:55 11:25 - - 07:45 12:35 15:20 15:15 11:25
Maximum _ 16,4 C 98 % 1004,1 hPa 2,0 l/m 11,7 km/h
S (2 Bft)
- - 5 min 1000 W/m 11,7 C 16,3 C 27,4 km/h
S-SO (5 Bft)
Durchschnitt _ 11,3 C 87 % 1002,9 hPa #13,2 l/m 3,9 km/h (1 Bft) S-SO - #6:35 h 252 W/m 9,3 C 11,2 C 10,5 km/h (2 Bft)